sensor_id;sensor_type;location;lat;lon;timestamp;pressure;altitude;pressure_sealevel;temperature;humidity
3096;BME280;1558;42.700;23.360;2022-11-15T00:01:07;95939.97;;;4.15;100.00
3096;BME280;1558;42.700;23.360;2022-11-15T00:03:35;95934.41;;;4.06;100.00
3096;BME280;1558;42.700;23.360;2022-11-15T00:06:04;95905.47;;;3.80;100.00
3096;BME280;1558;42.700;23.360;2022-11-15T00:08:33;95937.63;;;4.03;100.00
3096;BME280;1558;42.700;23.360;2022-11-15T00:11:02;95937.34;;;4.05;100.00
3096;BME280;1558;42.700;23.360;2022-11-15T00:13:30;95940.00;;;4.10;100.00
3096;BME280;1558;42.700;23.360;2022-11-15T00:16:00;95938.38;;;4.14;100.00
3096;BME280;1558;42.700;23.360;2022-11-15T00:18:29;95935.16;;;4.17;100.00
3096;BME280;1558;42.700;23.360;2022-11-15T00:21:03;95940.50;;;4.17;100.00
3096;BME280;1558;42.700;23.360;2022-11-15T00:23:33;95934.38;;;4.11;100.00
3096;BME280;1558;42.700;23.360;2022-11-15T00:26:01;95910.22;;;3.88;100.00
3096;BME280;1558;42.700;23.360;2022-11-15T00:28:29;95928.03;;;3.97;100.00
3096;BME280;1558;42.700;23.360;2022-11-15T00:31:00;95928.84;;;3.98;100.00
3096;BME280;1558;42.700;23.360;2022-11-15T00:33:28;95925.13;;;3.94;100.00
3096;BME280;1558;42.700;23.360;2022-11-15T00:36:00;95921.09;;;4.01;100.00
3096;BME280;1558;42.700;23.360;2022-11-15T00:38:31;95921.84;;;4.12;100.00
3096;BME280;1558;42.700;23.360;2022-11-15T00:41:00;95911.75;;;4.04;100.00
3096;BME280;1558;42.700;23.360;2022-11-15T00:43:35;95909.38;;;3.97;100.00
3096;BME280;1558;42.700;23.360;2022-11-15T00:46:03;95915.72;;;4.06;100.00
3096;BME280;1558;42.700;23.360;2022-11-15T00:48:31;95915.47;;;4.03;100.00
3096;BME280;1558;42.700;23.360;2022-11-15T00:50:59;95913.88;;;4.02;100.00
3096;BME280;1558;42.700;23.360;2022-11-15T00:53:27;95919.75;;;4.04;100.00
3096;BME280;1558;42.700;23.360;2022-11-15T00:55:55;95911.19;;;4.02;100.00
3096;BME280;1558;42.700;23.360;2022-11-15T00:58:24;95915.19;;;4.04;100.00
3096;BME280;1558;42.700;23.360;2022-11-15T01:00:52;95901.63;;;3.96;100.00
3096;BME280;1558;42.700;23.360;2022-11-15T01:03:21;95901.69;;;3.86;100.00
3096;BME280;1558;42.700;23.360;2022-11-15T01:05:49;95905.47;;;3.75;100.00
3096;BME280;1558;42.700;23.360;2022-11-15T01:08:17;95902.59;;;3.61;100.00
3096;BME280;1558;42.700;23.360;2022-11-15T01:10:44;95899.13;;;3.61;100.00
3096;BME280;1558;42.700;23.360;2022-11-15T01:13:12;95903.91;;;3.64;100.00
3096;BME280;1558;42.700;23.360;2022-11-15T01:15:42;95909.22;;;3.64;100.00
3096;BME280;1558;42.700;23.360;2022-11-15T01:18:10;95901.78;;;3.66;100.00
3096;BME280;1558;42.700;23.360;2022-11-15T01:20:39;95898.84;;;3.62;100.00
3096;BME280;1558;42.700;23.360;2022-11-15T01:23:07;95907.66;;;3.63;100.00
3096;BME280;1558;42.700;23.360;2022-11-15T01:25:35;95899.16;;;3.51;100.00
3096;BME280;1558;42.700;23.360;2022-11-15T01:28:03;95903.97;;;3.43;100.00
3096;BME280;1558;42.700;23.360;2022-11-15T01:30:31;95901.34;;;3.28;100.00
3096;BME280;1558;42.700;23.360;2022-11-15T01:33:01;95899.78;;;3.12;100.00
3096;BME280;1558;42.700;23.360;2022-11-15T01:35:28;95826.88;;;2.68;100.00
3096;BME280;1558;42.700;23.360;2022-11-15T01:37:56;95896.31;;;3.12;100.00
3096;BME280;1558;42.700;23.360;2022-11-15T01:40:24;95904.59;;;3.10;100.00
3096;BME280;1558;42.700;23.360;2022-11-15T01:42:52;95902.44;;;3.12;100.00
3096;BME280;1558;42.700;23.360;2022-11-15T01:45:20;95900.88;;;3.11;100.00
3096;BME280;1558;42.700;23.360;2022-11-15T01:47:50;95890.22;;;3.01;100.00
3096;BME280;1558;42.700;23.360;2022-11-15T01:50:24;95895.28;;;2.98;100.00
3096;BME280;1558;42.700;23.360;2022-11-15T01:52:53;95893.69;;;2.92;100.00
3096;BME280;1558;42.700;23.360;2022-11-15T01:55:23;95895.56;;;2.76;100.00
3096;BME280;1558;42.700;23.360;2022-11-15T01:57:55;95895.84;;;2.74;100.00
3096;BME280;1558;42.700;23.360;2022-11-15T02:00:24;95888.66;;;2.80;100.00
3096;BME280;1558;42.700;23.360;2022-11-15T02:02:52;95892.09;;;2.81;100.00
3096;BME280;1558;42.700;23.360;2022-11-15T02:05:23;95891.56;;;2.84;100.00
3096;BME280;1558;42.700;23.360;2022-11-15T02:07:51;95899.31;;;2.70;100.00
3096;BME280;1558;42.700;23.360;2022-11-15T02:10:20;95900.34;;;2.64;100.00
3096;BME280;1558;42.700;23.360;2022-11-15T02:12:49;95900.63;;;2.57;100.00
3096;BME280;1558;42.700;23.360;2022-11-15T02:15:17;95895.84;;;2.44;100.00
3096;BME280;1558;42.700;23.360;2022-11-15T02:18:07;95895.03;;;2.34;100.00
3096;BME280;1558;42.700;23.360;2022-11-15T02:20:44;95891.31;;;2.35;100.00
3096;BME280;1558;42.700;23.360;2022-11-15T02:26:33;95895.28;;;2.32;100.00
3096;BME280;1558;42.700;23.360;2022-11-15T02:29:07;95893.44;;;2.28;100.00
3096;BME280;1558;42.700;23.360;2022-11-15T02:31:45;95892.91;;;2.26;100.00
3096;BME280;1558;42.700;23.360;2022-11-15T02:34:22;95896.63;;;2.30;100.00
3096;BME280;1558;42.700;23.360;2022-11-15T02:36:59;95876.63;;;2.17;100.00
3096;BME280;1558;42.700;23.360;2022-11-15T02:39:34;95890.50;;;2.34;100.00
3096;BME280;1558;42.700;23.360;2022-11-15T02:42:07;95888.09;;;2.28;100.00
3096;BME280;1558;42.700;23.360;2022-11-15T02:44:58;95882.25;;;2.26;100.00
3096;BME280;1558;42.700;23.360;2022-11-15T02:47:33;95890.75;;;2.18;100.00
3096;BME280;1558;42.700;23.360;2022-11-15T02:50:08;95833.75;;;1.78;100.00
3096;BME280;1558;42.700;23.360;2022-11-15T02:52:36;95894.72;;;2.15;100.00
3096;BME280;1558;42.700;23.360;2022-11-15T02:55:04;95884.91;;;2.16;100.00
3096;BME280;1558;42.700;23.360;2022-11-15T02:57:39;95884.34;;;2.03;100.00
3096;BME280;1558;42.700;23.360;2022-11-15T03:00:12;95895.81;;;2.09;100.00
3096;BME280;1558;42.700;23.360;2022-11-15T03:05:35;95893.66;;;2.21;100.00
3096;BME280;1558;42.700;23.360;2022-11-15T03:08:08;95889.69;;;2.29;100.00
3096;BME280;1558;42.700;23.360;2022-11-15T03:10:43;95902.75;;;2.25;100.00
3096;BME280;1558;42.700;23.360;2022-11-15T03:13:24;95888.09;;;2.23;100.00
3096;BME280;1558;42.700;23.360;2022-11-15T03:15:57;95891.28;;;2.15;100.00
3096;BME280;1558;42.700;23.360;2022-11-15T03:18:32;95897.38;;;2.10;100.00
3096;BME280;1558;42.700;23.360;2022-11-15T03:21:04;95890.44;;;1.99;100.00
3096;BME280;1558;42.700;23.360;2022-11-15T03:23:34;95886.94;;;1.88;100.00
3096;BME280;1558;42.700;23.360;2022-11-15T03:26:07;95888.03;;;1.97;100.00
3096;BME280;1558;42.700;23.360;2022-11-15T03:28:38;95874.75;;;2.02;100.00
3096;BME280;1558;42.700;23.360;2022-11-15T03:31:11;95888.59;;;2.10;100.00
3096;BME280;1558;42.700;23.360;2022-11-15T03:33:57;95885.16;;;2.09;100.00
3096;BME280;1558;42.700;23.360;2022-11-15T03:36:27;95872.34;;;1.96;100.00
3096;BME280;1558;42.700;23.360;2022-11-15T03:38:58;95874.75;;;2.02;100.00
3096;BME280;1558;42.700;23.360;2022-11-15T03:41:31;95875.28;;;2.04;100.00
3096;BME280;1558;42.700;23.360;2022-11-15T03:44:08;95872.88;;;1.93;100.00
3096;BME280;1558;42.700;23.360;2022-11-15T03:46:40;95876.34;;;1.93;100.00
3096;BME280;1558;42.700;23.360;2022-11-15T03:49:15;95864.31;;;1.81;100.00
3096;BME280;1558;42.700;23.360;2022-11-15T03:51:44;95864.06;;;1.72;100.00
3096;BME280;1558;42.700;23.360;2022-11-15T03:54:13;95862.44;;;1.66;100.00
3096;BME280;1558;42.700;23.360;2022-11-15T03:56:41;95866.97;;;1.66;100.00
3096;BME280;1558;42.700;23.360;2022-11-15T03:59:09;95864.56;;;1.69;100.00
3096;BME280;1558;42.700;23.360;2022-11-15T04:01:36;95855.81;;;1.69;100.00
3096;BME280;1558;42.700;23.360;2022-11-15T04:04:04;95859.72;;;1.51;100.00
3096;BME280;1558;42.700;23.360;2022-11-15T04:06:34;95857.59;;;1.48;100.00
3096;BME280;1558;42.700;23.360;2022-11-15T04:09:02;95866.13;;;1.55;100.00
3096;BME280;1558;42.700;23.360;2022-11-15T04:11:30;95860.00;;;1.55;100.00
3096;BME280;1558;42.700;23.360;2022-11-15T04:13:58;95858.97;;;1.61;100.00
3096;BME280;1558;42.700;23.360;2022-11-15T04:16:26;95858.44;;;1.59;100.00
3096;BME280;1558;42.700;23.360;2022-11-15T04:18:54;95853.38;;;1.52;100.00
3096;BME280;1558;42.700;23.360;2022-11-15T04:21:37;95842.44;;;1.44;100.00
3096;BME280;1558;42.700;23.360;2022-11-15T04:24:22;95848.81;;;1.43;100.00
3096;BME280;1558;42.700;23.360;2022-11-15T04:26:50;95847.47;;;1.40;100.00
3096;BME280;1558;42.700;23.360;2022-11-15T04:29:18;95847.97;;;1.32;100.00
3096;BME280;1558;42.700;23.360;2022-11-15T04:32:06;95848.25;;;1.41;100.00
3096;BME280;1558;42.700;23.360;2022-11-15T04:34:34;95846.69;;;1.45;100.00
3096;BME280;1558;42.700;23.360;2022-11-15T04:37:03;95847.47;;;1.40;100.00
3096;BME280;1558;42.700;23.360;2022-11-15T04:39:40;95849.66;;;1.58;100.00
3096;BME280;1558;42.700;23.360;2022-11-15T04:42:08;95848.88;;;1.63;100.00
3096;BME280;1558;42.700;23.360;2022-11-15T04:44:36;95843.28;;;1.64;100.00
3096;BME280;1558;42.700;23.360;2022-11-15T04:47:04;95846.75;;;1.70;100.00
3096;BME280;1558;42.700;23.360;2022-11-15T04:49:32;95849.16;;;1.76;100.00
3096;BME280;1558;42.700;23.360;2022-11-15T04:52:00;95850.53;;;1.89;100.00
3096;BME280;1558;42.700;23.360;2022-11-15T04:54:29;95853.72;;;1.96;100.00
3096;BME280;1558;42.700;23.360;2022-11-15T04:56:57;95844.97;;;2.05;100.00
3096;BME280;1558;42.700;23.360;2022-11-15T04:59:25;95844.69;;;2.07;100.00
3096;BME280;1558;42.700;23.360;2022-11-15T05:01:53;95846.56;;;2.17;100.00
3096;BME280;1558;42.700;23.360;2022-11-15T05:04:21;95854.84;;;2.25;100.00
3096;BME280;1558;42.700;23.360;2022-11-15T05:06:49;95853.25;;;2.34;100.00
3096;BME280;1558;42.700;23.360;2022-11-15T05:09:19;95852.97;;;2.41;100.00
3096;BME280;1558;42.700;23.360;2022-11-15T05:11:48;95847.38;;;2.57;100.00
3096;BME280;1558;42.700;23.360;2022-11-15T05:14:16;95776.34;;;2.23;100.00
3096;BME280;1558;42.700;23.360;2022-11-15T05:16:44;95851.66;;;2.63;100.00
3096;BME280;1558;42.700;23.360;2022-11-15T05:19:12;95850.84;;;2.73;100.00
3096;BME280;1558;42.700;23.360;2022-11-15T05:21:40;95847.09;;;2.74;100.00
3096;BME280;1558;42.700;23.360;2022-11-15T05:24:09;95851.38;;;2.80;100.00
3096;BME280;1558;42.700;23.360;2022-11-15T05:26:37;95849.22;;;2.82;100.00
3096;BME280;1558;42.700;23.360;2022-11-15T05:29:09;95854.56;;;2.87;100.00
3096;BME280;1558;42.700;23.360;2022-11-15T05:31:39;95849.75;;;2.94;100.00
3096;BME280;1558;42.700;23.360;2022-11-15T05:34:07;95844.94;;;3.01;100.00
3096;BME280;1558;42.700;23.360;2022-11-15T05:36:37;95847.06;;;2.99;100.00
3096;BME280;1558;42.700;23.360;2022-11-15T05:39:06;95823.13;;;2.69;100.00
3096;BME280;1558;42.700;23.360;2022-11-15T05:41:37;95842.28;;;2.91;100.00
3096;BME280;1558;42.700;23.360;2022-11-15T05:44:09;95843.06;;;3.02;100.00
3096;BME280;1558;42.700;23.360;2022-11-15T05:46:39;95846.50;;;3.07;100.00
3096;BME280;1558;42.700;23.360;2022-11-15T05:49:10;95848.34;;;3.12;100.00
3096;BME280;1558;42.700;23.360;2022-11-15T05:51:39;95832.16;;;2.98;100.00
3096;BME280;1558;42.700;23.360;2022-11-15T05:54:08;95849.97;;;3.13;100.00
3096;BME280;1558;42.700;23.360;2022-11-15T05:56:37;95850.47;;;3.20;100.00
3096;BME280;1558;42.700;23.360;2022-11-15T05:59:06;95810.31;;;3.01;100.00
3096;BME280;1558;42.700;23.360;2022-11-15T06:01:36;95814.56;;;2.97;100.00
3096;BME280;1558;42.700;23.360;2022-11-15T06:04:05;95855.50;;;3.36;100.00
3096;BME280;1558;42.700;23.360;2022-11-15T06:06:33;95849.59;;;3.45;100.00
3096;BME280;1558;42.700;23.360;2022-11-15T06:09:00;95841.88;;;3.38;100.00
3096;BME280;1558;42.700;23.360;2022-11-15T06:11:28;95852.78;;;3.52;100.00
3096;BME280;1558;42.700;23.360;2022-11-15T06:13:56;95864.72;;;3.59;100.00
3096;BME280;1558;42.700;23.360;2022-11-15T06:16:24;95860.72;;;3.57;100.00
3096;BME280;1558;42.700;23.360;2022-11-15T06:18:53;95855.41;;;3.57;100.00
3096;BME280;1558;42.700;23.360;2022-11-15T06:21:21;95864.72;;;3.59;100.00
3096;BME280;1558;42.700;23.360;2022-11-15T06:23:49;95861.50;;;3.67;100.00
3096;BME280;1558;42.700;23.360;2022-11-15T06:26:17;95869.44;;;3.82;100.00
3096;BME280;1558;42.700;23.360;2022-11-15T06:28:45;95863.28;;;3.87;100.00
3096;BME280;1558;42.700;23.360;2022-11-15T06:31:13;95858.94;;;3.96;100.00
3096;BME280;1558;42.700;23.360;2022-11-15T06:33:41;95850.44;;;3.94;100.00
3096;BME280;1558;42.700;23.360;2022-11-15T06:36:12;95859.97;;;4.05;100.00
3096;BME280;1558;42.700;23.360;2022-11-15T06:38:43;95856.25;;;4.01;100.00
3096;BME280;1558;42.700;23.360;2022-11-15T06:41:13;95853.72;;;4.20;100.00
3096;BME280;1558;42.700;23.360;2022-11-15T06:43:41;95849.19;;;4.20;100.00
3096;BME280;1558;42.700;23.360;2022-11-15T06:46:09;95847.66;;;4.09;100.00
3096;BME280;1558;42.700;23.360;2022-11-15T06:48:37;95853.81;;;4.04;100.00
3096;BME280;1558;42.700;23.360;2022-11-15T06:51:05;95852.50;;;4.02;100.00
3096;BME280;1558;42.700;23.360;2022-11-15T06:53:36;95853.00;;;4.09;100.00
3096;BME280;1558;42.700;23.360;2022-11-15T06:56:05;95853.47;;;4.16;100.00
3096;BME280;1558;42.700;23.360;2022-11-15T06:58:34;95571.53;;;2.13;100.00
3096;BME280;1558;42.700;23.360;2022-11-15T07:01:04;95822.69;;;3.90;100.00
3096;BME280;1558;42.700;23.360;2022-11-15T07:03:34;95851.41;;;4.08;100.00
3096;BME280;1558;42.700;23.360;2022-11-15T07:06:02;95809.34;;;3.90;100.00
3096;BME280;1558;42.700;23.360;2022-11-15T07:08:34;95853.19;;;4.23;100.00
3096;BME280;1558;42.700;23.360;2022-11-15T07:11:04;95846.25;;;4.22;100.00
3096;BME280;1558;42.700;23.360;2022-11-15T07:13:34;95833.53;;;4.08;100.00
3096;BME280;1558;42.700;23.360;2022-11-15T07:16:03;95850.22;;;4.24;100.00
3096;BME280;1558;42.700;23.360;2022-11-15T07:18:32;95843.19;;;4.38;100.00
3096;BME280;1558;42.700;23.360;2022-11-15T07:21:02;95840.28;;;4.35;100.00
3096;BME280;1558;42.700;23.360;2022-11-15T07:23:30;95833.88;;;4.31;100.00
3096;BME280;1558;42.700;23.360;2022-11-15T07:25:59;95828.03;;;4.29;100.00
3096;BME280;1558;42.700;23.360;2022-11-15T07:28:28;95841.66;;;4.27;100.00
3096;BME280;1558;42.700;23.360;2022-11-15T07:30:57;95850.16;;;4.34;100.00
3096;BME280;1558;42.700;23.360;2022-11-15T07:33:25;95842.41;;;4.33;100.00
3096;BME280;1558;42.700;23.360;2022-11-15T07:35:52;95853.28;;;4.46;100.00
3096;BME280;1558;42.700;23.360;2022-11-15T07:38:20;95836.59;;;4.59;100.00
3096;BME280;1558;42.700;23.360;2022-11-15T07:40:55;95843.47;;;4.70;100.00
3096;BME280;1558;42.700;23.360;2022-11-15T07:43:23;95847.25;;;4.64;100.00
3096;BME280;1558;42.700;23.360;2022-11-15T07:45:53;95842.56;;;4.51;100.00
3096;BME280;1558;42.700;23.360;2022-11-15T07:48:25;95848.44;;;4.48;100.00
3096;BME280;1558;42.700;23.360;2022-11-15T07:51:11;95832.13;;;4.50;100.00
3096;BME280;1558;42.700;23.360;2022-11-15T07:53:40;95808.94;;;4.11;100.00
3096;BME280;1558;42.700;23.360;2022-11-15T07:56:09;95840.50;;;4.38;100.00
3096;BME280;1558;42.700;23.360;2022-11-15T07:58:37;95839.31;;;4.54;100.00
3096;BME280;1558;42.700;23.360;2022-11-15T08:01:07;95765.75;;;4.04;100.00
3096;BME280;1558;42.700;23.360;2022-11-15T08:03:37;95845.53;;;4.45;100.00
3096;BME280;1558;42.700;23.360;2022-11-15T08:06:05;95829.25;;;4.46;100.00
3096;BME280;1558;42.700;23.360;2022-11-15T08:08:33;95841.47;;;4.52;100.00
3096;BME280;1558;42.700;23.360;2022-11-15T08:11:01;95792.00;;;4.26;100.00
3096;BME280;1558;42.700;23.360;2022-11-15T08:13:29;95838.22;;;4.60;100.00
3096;BME280;1558;42.700;23.360;2022-11-15T08:15:58;95839.06;;;4.56;100.00
3096;BME280;1558;42.700;23.360;2022-11-15T08:18:28;95816.16;;;4.45;100.00
3096;BME280;1558;42.700;23.360;2022-11-15T08:20:58;95841.91;;;4.64;100.00
3096;BME280;1558;42.700;23.360;2022-11-15T08:23:27;95828.59;;;4.59;100.00
3096;BME280;1558;42.700;23.360;2022-11-15T08:25:59;95833.09;;;4.64;100.00
3096;BME280;1558;42.700;23.360;2022-11-15T08:28:28;95817.72;;;4.79;100.00
3096;BME280;1558;42.700;23.360;2022-11-15T08:30:57;95818.81;;;5.02;100.00
3096;BME280;1558;42.700;23.360;2022-11-15T08:33:25;95811.56;;;5.08;100.00
3096;BME280;1558;42.700;23.360;2022-11-15T08:35:57;95822.34;;;4.98;100.00
3096;BME280;1558;42.700;23.360;2022-11-15T08:38:25;95820.44;;;5.03;100.00
3096;BME280;1558;42.700;23.360;2022-11-15T08:41:00;95823.50;;;5.15;100.00
3096;BME280;1558;42.700;23.360;2022-11-15T08:43:29;95821.56;;;5.21;100.00
3096;BME280;1558;42.700;23.360;2022-11-15T08:45:58;95757.53;;;4.87;100.00
3096;BME280;1558;42.700;23.360;2022-11-15T08:48:26;95811.09;;;5.24;100.00
3096;BME280;1558;42.700;23.360;2022-11-15T08:50:55;95804.41;;;5.27;100.00
3096;BME280;1558;42.700;23.360;2022-11-15T08:53:24;95808.59;;;5.33;100.00
3096;BME280;1558;42.700;23.360;2022-11-15T08:55:52;95806.66;;;5.38;100.00
3096;BME280;1558;42.700;23.360;2022-11-15T08:58:20;95802.63;;;5.41;100.00
3096;BME280;1558;42.700;23.360;2022-11-15T09:00:48;95797.50;;;5.21;100.00
3096;BME280;1558;42.700;23.360;2022-11-15T09:03:16;95789.88;;;5.09;100.00
3096;BME280;1558;42.700;23.360;2022-11-15T09:05:43;95789.72;;;5.01;100.00
3096;BME280;1558;42.700;23.360;2022-11-15T09:08:11;95784.47;;;4.91;100.00
3096;BME280;1558;42.700;23.360;2022-11-15T09:11:04;95781.75;;;4.96;100.00
3096;BME280;1558;42.700;23.360;2022-11-15T09:13:32;95785.34;;;5.10;100.00
3096;BME280;1558;42.700;23.360;2022-11-15T09:16:01;95785.03;;;5.35;100.00
3096;BME280;1558;42.700;23.360;2022-11-15T09:18:29;95776.53;;;5.52;100.00
3096;BME280;1558;42.700;23.360;2022-11-15T09:20:58;95780.81;;;5.53;100.00
3096;BME280;1558;42.700;23.360;2022-11-15T09:23:27;95774.13;;;5.31;100.00
3096;BME280;1558;42.700;23.360;2022-11-15T09:25:58;95768.22;;;5.11;100.00
3096;BME280;1558;42.700;23.360;2022-11-15T09:28:29;95775.44;;;5.10;100.00
3096;BME280;1558;42.700;23.360;2022-11-15T09:31:14;95761.66;;;5.22;100.00
3096;BME280;1558;42.700;23.360;2022-11-15T09:33:47;95761.72;;;5.17;100.00
3096;BME280;1558;42.700;23.360;2022-11-15T09:36:15;95759.34;;;5.15;100.00
3096;BME280;1558;42.700;23.360;2022-11-15T09:38:43;95756.16;;;5.37;100.00
3096;BME280;1558;42.700;23.360;2022-11-15T09:41:25;95746.66;;;5.44;100.00
3096;BME280;1558;42.700;23.360;2022-11-15T09:44:07;95752.88;;;5.40;100.00
3096;BME280;1558;42.700;23.360;2022-11-15T09:46:48;95745.16;;;5.38;100.00
3096;BME280;1558;42.700;23.360;2022-11-15T09:49:21;95731.22;;;5.41;100.00
3096;BME280;1558;42.700;23.360;2022-11-15T09:51:51;95762.63;;;5.31;100.00
3096;BME280;1558;42.700;23.360;2022-11-15T09:54:27;95741.56;;;5.48;100.00
3096;BME280;1558;42.700;23.360;2022-11-15T09:57:20;95728.53;;;5.41;100.00
3096;BME280;1558;42.700;23.360;2022-11-15T09:59:59;95720.78;;;5.40;100.00
3096;BME280;1558;42.700;23.360;2022-11-15T10:03:06;95719.06;;;5.49;100.00
3096;BME280;1558;42.700;23.360;2022-11-15T10:05:38;95707.06;;;5.46;100.00
3096;BME280;1558;42.700;23.360;2022-11-15T10:08:17;95711.81;;;5.68;100.00
3096;BME280;1558;42.700;23.360;2022-11-15T10:10:53;95705.69;;;5.68;100.00
3096;BME280;1558;42.700;23.360;2022-11-15T10:13:44;95701.28;;;5.95;100.00
3096;BME280;1558;42.700;23.360;2022-11-15T10:16:27;95686.22;;;5.81;100.00
3096;BME280;1558;42.700;23.360;2022-11-15T10:19:05;95698.53;;;6.00;100.00
3096;BME280;1558;42.700;23.360;2022-11-15T10:21:42;95702.28;;;6.32;100.00
3096;BME280;1558;42.700;23.360;2022-11-15T10:24:17;95693.38;;;6.50;100.00
3096;BME280;1558;42.700;23.360;2022-11-15T10:26:46;95686.34;;;6.54;100.00
3096;BME280;1558;42.700;23.360;2022-11-15T10:29:18;95688.06;;;6.77;100.00
3096;BME280;1558;42.700;23.360;2022-11-15T10:31:54;95685.28;;;6.96;100.00
3096;BME280;1558;42.700;23.360;2022-11-15T10:34:23;95681.19;;;7.12;100.00
3096;BME280;1558;42.700;23.360;2022-11-15T10:36:55;95674.97;;;6.89;100.00
3096;BME280;1558;42.700;23.360;2022-11-15T10:39:23;95667.41;;;6.64;100.00
3096;BME280;1558;42.700;23.360;2022-11-15T10:42:16;95664.03;;;6.72;100.00
3096;BME280;1558;42.700;23.360;2022-11-15T10:44:45;95653.28;;;6.99;100.00
3096;BME280;1558;42.700;23.360;2022-11-15T10:47:32;95645.41;;;7.16;100.00
3096;BME280;1558;42.700;23.360;2022-11-15T10:50:07;95645.63;;;7.06;100.00
3096;BME280;1558;42.700;23.360;2022-11-15T10:52:53;95641.75;;;7.12;100.00
3096;BME280;1558;42.700;23.360;2022-11-15T10:55:26;95643.47;;;7.08;100.00
3096;BME280;1558;42.700;23.360;2022-11-15T10:58:01;95644.94;;;7.14;100.00
3096;BME280;1558;42.700;23.360;2022-11-15T11:00:33;95635.78;;;7.29;100.00
3096;BME280;1558;42.700;23.360;2022-11-15T11:03:04;95630.94;;;7.39;100.00
3096;BME280;1558;42.700;23.360;2022-11-15T11:05:35;95619.66;;;7.65;100.00
3096;BME280;1558;42.700;23.360;2022-11-15T11:08:21;95616.34;;;8.12;100.00
3096;BME280;1558;42.700;23.360;2022-11-15T11:10:52;95609.25;;;8.47;100.00
3096;BME280;1558;42.700;23.360;2022-11-15T11:13:27;95605.91;;;8.80;100.00
3096;BME280;1558;42.700;23.360;2022-11-15T11:16:00;95597.97;;;8.67;100.00
3096;BME280;1558;42.700;23.360;2022-11-15T11:18:39;95600.44;;;8.55;100.00
3096;BME280;1558;42.700;23.360;2022-11-15T11:21:15;95604.53;;;9.00;100.00
3096;BME280;1558;42.700;23.360;2022-11-15T11:23:52;95586.81;;;9.25;100.00
3096;BME280;1558;42.700;23.360;2022-11-15T11:26:35;95594.56;;;9.18;100.00
3096;BME280;1558;42.700;23.360;2022-11-15T11:29:20;95584.22;;;8.77;100.00
3096;BME280;1558;42.700;23.360;2022-11-15T11:31:56;95571.31;;;9.05;100.00
3096;BME280;1558;42.700;23.360;2022-11-15T11:34:45;95562.91;;;9.32;100.00
3096;BME280;1558;42.700;23.360;2022-11-15T11:37:22;95554.03;;;9.06;100.00
3096;BME280;1558;42.700;23.360;2022-11-15T11:40:02;95526.34;;;9.14;100.00
3096;BME280;1558;42.700;23.360;2022-11-15T11:42:43;95538.84;;;9.70;100.00
3096;BME280;1558;42.700;23.360;2022-11-15T11:45:19;95536.59;;;9.80;100.00
3096;BME280;1558;42.700;23.360;2022-11-15T11:47:53;95534.88;;;9.67;100.00
3096;BME280;1558;42.700;23.360;2022-11-15T11:50:28;95529.28;;;9.89;100.00
3096;BME280;1558;42.700;23.360;2022-11-15T11:52:58;95529.75;;;9.91;100.00
3096;BME280;1558;42.700;23.360;2022-11-15T11:55:32;95533.84;;;10.06;100.00
3096;BME280;1558;42.700;23.360;2022-11-15T11:58:11;95526.88;;;10.13;100.00
3096;BME280;1558;42.700;23.360;2022-11-15T12:00:43;95522.44;;;10.00;100.00
3096;BME280;1558;42.700;23.360;2022-11-15T12:03:20;95514.25;;;9.88;100.00
3096;BME280;1558;42.700;23.360;2022-11-15T12:05:54;95507.63;;;9.69;100.00
3096;BME280;1558;42.700;23.360;2022-11-15T12:08:32;95502.28;;;9.60;100.00
3096;BME280;1558;42.700;23.360;2022-11-15T12:11:09;95477.91;;;9.39;100.00
3096;BME280;1558;42.700;23.360;2022-11-15T12:13:39;95493.91;;;9.19;100.00
3096;BME280;1558;42.700;23.360;2022-11-15T12:16:13;95488.22;;;9.29;100.00
3096;BME280;1558;42.700;23.360;2022-11-15T12:18:46;95484.03;;;9.74;100.00
3096;BME280;1558;42.700;23.360;2022-11-15T12:21:21;95489.63;;;9.98;100.00
3096;BME280;1558;42.700;23.360;2022-11-15T12:23:58;95477.72;;;10.16;100.00
3096;BME280;1558;42.700;23.360;2022-11-15T12:26:34;95479.94;;;10.44;100.00
3096;BME280;1558;42.700;23.360;2022-11-15T12:29:10;95473.25;;;10.50;100.00
3096;BME280;1558;42.700;23.360;2022-11-15T12:31:41;95470.25;;;10.13;100.00
3096;BME280;1558;42.700;23.360;2022-11-15T12:34:29;95472.00;;;10.09;100.00
3096;BME280;1558;42.700;23.360;2022-11-15T12:40:27;95462.91;;;10.31;100.00
3096;BME280;1558;42.700;23.360;2022-11-15T12:43:01;95458.66;;;10.22;100.00
3096;BME280;1558;42.700;23.360;2022-11-15T12:45:31;95430.50;;;10.40;100.00
3096;BME280;1558;42.700;23.360;2022-11-15T12:51:09;95442.25;;;10.85;100.00
3096;BME280;1558;42.700;23.360;2022-11-15T12:53:39;95439.59;;;10.97;100.00
3096;BME280;1558;42.700;23.360;2022-11-15T12:56:20;95443.09;;;10.98;100.00
3096;BME280;1558;42.700;23.360;2022-11-15T12:58:50;95424.78;;;10.82;100.00
3096;BME280;1558;42.700;23.360;2022-11-15T13:04:35;95432.41;;;11.01;100.00
3096;BME280;1558;42.700;23.360;2022-11-15T13:07:04;95387.09;;;10.74;100.00
3096;BME280;1558;42.700;23.360;2022-11-15T13:09:55;95437.81;;;11.01;100.00
3096;BME280;1558;42.700;23.360;2022-11-15T13:12:49;95427.81;;;11.02;100.00
3096;BME280;1558;42.700;23.360;2022-11-15T13:15:36;95420.59;;;10.73;100.00
3096;BME280;1558;42.700;23.360;2022-11-15T13:18:29;95414.84;;;10.74;100.00
3096;BME280;1558;42.700;23.360;2022-11-15T13:20:58;95414.28;;;10.69;100.00
3096;BME280;1558;42.700;23.360;2022-11-15T13:23:28;95413.09;;;10.78;100.00
3096;BME280;1558;42.700;23.360;2022-11-15T13:26:10;95411.56;;;10.89;100.00
3096;BME280;1558;42.700;23.360;2022-11-15T13:28:43;95409.84;;;10.85;100.00
3096;BME280;1558;42.700;23.360;2022-11-15T13:31:36;95407.34;;;10.80;100.00
3096;BME280;1558;42.700;23.360;2022-11-15T13:34:19;95399.53;;;10.66;100.00
3096;BME280;1558;42.700;23.360;2022-11-15T13:37:13;95408.13;;;10.39;100.00
3096;BME280;1558;42.700;23.360;2022-11-15T13:39:55;95401.88;;;10.27;100.00
3096;BME280;1558;42.700;23.360;2022-11-15T13:42:38;95404.50;;;10.35;100.00
3096;BME280;1558;42.700;23.360;2022-11-15T13:45:15;95405.03;;;10.29;100.00
3096;BME280;1558;42.700;23.360;2022-11-15T13:47:43;95395.28;;;10.07;100.00
3096;BME280;1558;42.700;23.360;2022-11-15T13:50:11;95416.13;;;9.89;100.00
3096;BME280;1558;42.700;23.360;2022-11-15T13:52:43;95401.91;;;9.89;100.00